createdAt,value
2023-04-26T00:00:42.854Z,3.60
2023-04-26T00:04:44.306Z,3.90
2023-04-26T00:08:40.368Z,3.50
2023-04-26T00:12:39.214Z,3.40
2023-04-26T00:16:34.419Z,3.40
2023-04-26T00:20:33.936Z,3.80
2023-04-26T00:24:29.007Z,3.70
2023-04-26T00:28:28.063Z,4.40
2023-04-26T00:32:24.133Z,3.00
2023-04-26T00:36:23.944Z,4.10
2023-04-26T00:40:19.530Z,3.60
2023-04-26T00:44:16.136Z,4.00
2023-04-26T00:48:15.411Z,4.40
2023-04-26T00:52:10.858Z,8.20
2023-04-26T00:56:08.172Z,10.80
2023-04-26T01:00:07.423Z,11.20
2023-04-26T01:04:03.873Z,11.80
2023-04-26T01:08:00.168Z,13.00
2023-04-26T01:11:59.712Z,13.50
2023-04-26T01:15:55.088Z,12.10
2023-04-26T01:19:52.287Z,10.70
2023-04-26T01:23:44.654Z,9.60
2023-04-26T01:27:30.054Z,8.40
2023-04-26T01:31:15.438Z,7.50
2023-04-26T01:35:07.098Z,7.20
2023-04-26T01:39:06.430Z,6.80
2023-04-26T01:43:02.278Z,6.90
2023-04-26T01:47:01.427Z,5.70
2023-04-26T01:50:57.223Z,5.00
2023-04-26T01:54:56.330Z,4.90
2023-04-26T01:58:51.628Z,4.90
2023-04-26T02:02:51.798Z,5.40
2023-04-26T02:06:47.187Z,5.20
2023-04-26T02:10:46.546Z,4.00
2023-04-26T02:14:41.956Z,4.10
2023-04-26T02:18:42.553Z,4.50
2023-04-26T02:22:38.235Z,4.30
2023-04-26T02:26:39.285Z,4.10
2023-04-26T02:30:35.505Z,4.50
2023-04-26T02:34:35.392Z,3.70
2023-04-26T02:38:30.615Z,4.10
2023-04-26T02:42:30.267Z,4.10
2023-04-26T02:46:25.464Z,4.50
2023-04-26T02:50:25.402Z,4.30
2023-04-26T02:54:20.291Z,3.70
2023-04-26T02:58:19.380Z,4.10
2023-04-26T03:02:14.353Z,4.00
2023-04-26T03:06:13.488Z,4.20
2023-04-26T03:10:08.668Z,3.80
2023-04-26T03:14:08.379Z,3.60
2023-04-26T03:18:01.877Z,4.30
2023-04-26T03:21:59.189Z,4.00
2023-04-26T03:25:56.644Z,3.90
2023-04-26T03:29:56.348Z,3.90
2023-04-26T03:33:52.459Z,3.70
2023-04-26T03:37:53.412Z,4.40
2023-04-26T03:41:49.173Z,4.70
2023-04-26T03:45:46.526Z,4.50
2023-04-26T03:49:40.098Z,3.70
2023-04-26T03:53:39.546Z,3.50
2023-04-26T03:57:35.550Z,10.30
2023-04-26T04:01:34.377Z,13.30
2023-04-26T04:05:29.418Z,13.90
2023-04-26T04:09:30.330Z,8.30
2023-04-26T04:13:23.458Z,5.90
2023-04-26T04:17:26.691Z,3.70
2023-04-26T04:25:00.704Z,3.40
2023-04-26T04:29:00.096Z,3.40
2023-04-26T04:32:55.871Z,3.90
2023-04-26T04:36:55.295Z,3.30
2023-04-26T04:40:51.407Z,3.60
2023-04-26T04:44:48.792Z,3.90
2023-04-26T04:48:49.638Z,3.90
2023-04-26T04:52:50.984Z,4.00
2023-04-26T04:56:52.794Z,4.20
2023-04-26T05:00:52.119Z,4.40
2023-04-26T05:04:58.561Z,4.50
2023-04-26T05:08:57.956Z,4.20
2023-04-26T05:12:53.605Z,4.20
2023-04-26T05:16:52.792Z,3.60
2023-04-26T05:20:37.781Z,4.00
2023-04-26T05:24:22.840Z,4.00
2023-04-26T05:28:08.061Z,3.70
2023-04-26T05:32:05.840Z,3.70
2023-04-26T05:36:15.748Z,3.80
2023-04-26T05:40:14.480Z,4.40
2023-04-26T05:44:09.723Z,7.00
2023-04-26T05:48:09.594Z,5.10
2023-04-26T05:52:04.918Z,3.60
2023-04-26T05:56:04.407Z,5.40
2023-04-26T05:59:59.394Z,5.10
2023-04-26T06:04:00.815Z,5.40
2023-04-26T06:08:00.756Z,6.20
2023-04-26T06:11:55.588Z,6.20
2023-04-26T06:15:54.939Z,5.20
2023-04-26T06:19:49.785Z,3.50
2023-04-26T06:23:49.564Z,3.70
2023-04-26T06:27:46.616Z,3.30
2023-04-26T06:31:45.518Z,5.60
2023-04-26T06:35:40.726Z,5.00
2023-04-26T06:39:40.693Z,6.30
2023-04-26T06:43:36.923Z,7.50
2023-04-26T06:47:39.824Z,5.00
2023-04-26T06:51:34.984Z,3.40
2023-04-26T06:55:34.343Z,3.70
2023-04-26T06:59:29.552Z,5.30
2023-04-26T07:03:28.628Z,5.30
2023-04-26T07:07:23.890Z,6.10
2023-04-26T07:11:25.331Z,3.20
2023-04-26T07:15:22.166Z,3.40
2023-04-26T07:19:21.441Z,3.00
2023-04-26T07:23:15.856Z,2.90
2023-04-26T07:27:14.899Z,2.60
2023-04-26T07:31:10.900Z,4.70
2023-04-26T07:35:10.201Z,6.10
2023-04-26T07:39:05.841Z,7.70
2023-04-26T07:43:04.973Z,9.60
2023-04-26T07:47:00.995Z,2.90
2023-04-26T07:50:59.683Z,3.30
2023-04-26T07:54:54.831Z,2.60
2023-04-26T07:58:53.820Z,3.10
2023-04-26T08:02:50.977Z,2.70
2023-04-26T08:06:51.036Z,5.70
2023-04-26T08:10:46.685Z,2.70
2023-04-26T08:14:46.377Z,5.20
2023-04-26T08:18:43.998Z,4.20
2023-04-26T08:22:45.259Z,2.10
2023-04-26T08:26:40.658Z,3.90
2023-04-26T08:30:39.605Z,5.20
2023-04-26T08:34:50.990Z,5.20
2023-04-26T08:38:50.542Z,2.20
2023-04-26T08:42:45.783Z,5.10
2023-04-26T08:46:45.526Z,4.90
2023-04-26T08:50:41.233Z,5.20
2023-04-26T08:54:40.752Z,4.30
2023-04-26T08:58:37.821Z,5.60
2023-04-26T09:02:39.457Z,3.90
2023-04-26T09:06:35.036Z,4.20
2023-04-26T09:10:33.121Z,3.60
2023-04-26T09:14:18.401Z,2.60
2023-04-26T09:18:03.896Z,3.60
2023-04-26T09:21:49.607Z,3.90
2023-04-26T09:25:35.502Z,4.80
2023-04-26T09:29:20.994Z,2.60
2023-04-26T09:33:06.013Z,3.10
2023-04-26T09:36:51.053Z,3.20
2023-04-26T09:40:36.328Z,2.30
2023-04-26T09:44:21.159Z,3.40
2023-04-26T09:48:06.150Z,3.80
2023-04-26T09:51:51.835Z,3.90
2023-04-26T09:55:37.051Z,3.10
2023-04-26T09:59:22.186Z,3.80
2023-04-26T10:03:06.971Z,4.20
2023-04-26T10:06:52.085Z,5.20
2023-04-26T10:10:43.652Z,5.90
2023-04-26T10:14:28.806Z,7.40
2023-04-26T10:18:13.554Z,5.70
2023-04-26T10:22:04.581Z,3.00
2023-04-26T10:26:02.622Z,2.20
2023-04-26T10:30:03.976Z,2.60
2023-04-26T10:34:03.341Z,2.60
2023-04-26T10:37:58.555Z,3.50
2023-04-26T10:41:59.736Z,4.30
2023-04-26T10:45:55.361Z,4.00
2023-04-26T10:49:57.048Z,3.20
2023-04-26T10:53:53.790Z,3.80
2023-04-26T10:57:55.791Z,3.90
2023-04-26T11:01:51.349Z,4.10
2023-04-26T11:05:49.473Z,3.90
2023-04-26T11:09:49.171Z,4.00
2023-04-26T11:13:48.189Z,4.20
2023-04-26T11:17:47.150Z,5.60
2023-04-26T11:21:37.920Z,7.80
2023-04-26T11:25:22.670Z,11.60
2023-04-26T11:29:13.408Z,10.60
2023-04-26T11:32:57.978Z,6.40
2023-04-26T11:36:48.905Z,6.40
2023-04-26T11:40:34.899Z,5.30
2023-04-26T11:44:26.389Z,7.60
2023-04-26T11:48:17.504Z,6.40
2023-04-26T11:52:08.588Z,4.40
2023-04-26T11:55:53.352Z,4.70
2023-04-26T11:59:44.200Z,5.00
2023-04-26T12:03:29.188Z,5.20
2023-04-26T12:07:14.143Z,5.10
2023-04-26T12:10:59.041Z,6.40
2023-04-26T12:14:52.172Z,4.80
2023-04-26T12:18:47.797Z,5.90
2023-04-26T12:22:45.427Z,7.00
2023-04-26T12:26:47.112Z,3.70
2023-04-26T12:30:44.527Z,3.90
2023-04-26T12:34:43.323Z,4.10
2023-04-26T12:38:42.280Z,3.00
2023-04-26T12:42:41.251Z,4.50
2023-04-26T12:46:42.864Z,3.50
2023-04-26T12:50:40.230Z,4.40
2023-04-26T12:54:39.232Z,4.10
2023-04-26T12:58:37.235Z,3.40
2023-04-26T13:02:38.933Z,3.50
2023-04-26T13:06:36.376Z,4.70
2023-04-26T13:10:38.278Z,5.20
2023-04-26T13:14:36.495Z,5.40
2023-04-26T13:18:37.709Z,4.60
2023-04-26T13:22:36.505Z,4.20
2023-04-26T13:26:37.864Z,5.60
2023-04-26T13:30:37.674Z,5.60
2023-04-26T13:34:35.412Z,5.20
2023-04-26T13:38:36.775Z,4.70
2023-04-26T13:42:34.212Z,4.90
2023-04-26T13:46:35.493Z,4.60
2023-04-26T13:50:33.324Z,4.60
2023-04-26T13:54:34.275Z,4.40
2023-04-26T13:58:32.429Z,5.20
2023-04-26T14:02:34.064Z,4.40
2023-04-26T14:06:35.289Z,4.20
2023-04-26T14:10:33.480Z,4.60
2023-04-26T14:14:35.427Z,3.60
2023-04-26T14:18:33.466Z,3.20
2023-04-26T14:22:35.471Z,3.20
2023-04-26T14:26:33.365Z,3.50
2023-04-26T14:30:35.109Z,3.00
2023-04-26T14:34:33.340Z,3.10
2023-04-26T14:38:34.441Z,3.80
2023-04-26T14:42:32.708Z,3.20
2023-04-26T14:46:34.479Z,3.50
2023-04-26T14:50:32.506Z,3.30
2023-04-26T14:54:34.033Z,2.90
2023-04-26T14:58:32.577Z,3.20
2023-04-26T15:02:33.587Z,3.20
2023-04-26T15:06:31.709Z,2.90
2023-04-26T15:10:33.070Z,2.50
2023-04-26T15:14:31.297Z,2.90
2023-04-26T15:18:32.453Z,3.20
2023-04-26T15:22:30.436Z,2.80
2023-04-26T15:26:31.926Z,2.90
2023-04-26T15:30:30.644Z,3.00
2023-04-26T15:34:32.084Z,3.40
2023-04-26T15:38:30.580Z,3.30
2023-04-26T15:42:31.933Z,3.00
2023-04-26T15:46:29.598Z,3.00
2023-04-26T15:50:30.673Z,3.40
2023-04-26T15:54:28.823Z,2.90
2023-04-26T15:58:30.091Z,3.10
2023-04-26T16:02:28.542Z,2.80
2023-04-26T16:06:30.106Z,2.90
2023-04-26T16:10:28.656Z,2.90
2023-04-26T16:14:30.674Z,3.00
2023-04-26T16:18:28.529Z,3.10
2023-04-26T16:22:29.383Z,3.40
2023-04-26T16:26:27.718Z,3.40
2023-04-26T16:30:28.629Z,2.90
2023-04-26T16:34:26.711Z,3.00
2023-04-26T16:38:27.672Z,3.10
2023-04-26T16:42:29.180Z,2.90
2023-04-26T16:46:26.821Z,3.40
2023-04-26T16:50:28.430Z,3.30
2023-04-26T16:54:25.818Z,3.70
2023-04-26T16:58:35.736Z,3.90
2023-04-26T17:02:37.298Z,3.90
2023-04-26T17:06:35.735Z,3.80
2023-04-26T17:10:37.132Z,3.70
2023-04-26T17:14:35.860Z,3.60
2023-04-26T17:18:37.213Z,3.40
2023-04-26T17:22:35.718Z,3.10
2023-04-26T17:26:36.877Z,4.00
2023-04-26T17:30:33.949Z,3.90
2023-04-26T17:34:34.563Z,3.70
2023-04-26T17:38:32.628Z,4.20
2023-04-26T17:42:30.809Z,3.40
2023-04-26T17:46:31.740Z,3.70
2023-04-26T17:50:28.624Z,3.90
2023-04-26T17:54:30.360Z,4.30
2023-04-26T17:58:30.794Z,4.50
2023-04-26T18:02:28.884Z,4.40
2023-04-26T18:06:30.689Z,3.90
2023-04-26T18:10:28.852Z,3.90
2023-04-26T18:14:29.904Z,3.50
2023-04-26T18:18:28.115Z,3.20
2023-04-26T18:22:29.726Z,3.80
2023-04-26T18:26:31.492Z,3.70
2023-04-26T18:30:29.954Z,4.10
2023-04-26T18:34:31.213Z,4.90
2023-04-26T18:38:28.961Z,3.90
2023-04-26T18:42:29.883Z,4.40
2023-04-26T18:46:26.833Z,4.90
2023-04-26T18:50:24.842Z,4.40
2023-04-26T18:54:25.812Z,4.30
2023-04-26T18:58:23.901Z,4.70
2023-04-26T19:02:23.264Z,5.00
2023-04-26T19:06:19.062Z,4.00
2023-04-26T19:10:17.536Z,5.20
2023-04-26T19:14:11.399Z,4.80
2023-04-26T19:18:09.882Z,4.20
2023-04-26T19:22:05.072Z,5.00
2023-04-26T19:26:04.348Z,5.40
2023-04-26T19:30:00.150Z,5.20
2023-04-26T19:33:58.972Z,4.80
2023-04-26T19:37:54.166Z,5.20
2023-04-26T19:41:53.557Z,4.90
2023-04-26T19:45:49.181Z,5.80
2023-04-26T19:49:49.128Z,4.50
2023-04-26T19:53:44.254Z,5.80
2023-04-26T19:57:43.949Z,6.30
2023-04-26T20:01:40.323Z,6.30
2023-04-26T20:05:39.599Z,6.30
2023-04-26T20:09:35.446Z,5.80
2023-04-26T20:13:34.805Z,6.30
2023-04-26T20:17:30.232Z,5.90
2023-04-26T20:21:29.367Z,6.00
2023-04-26T20:25:25.394Z,6.60
2023-04-26T20:29:25.333Z,7.10
2023-04-26T20:33:20.338Z,6.50
2023-04-26T20:37:19.103Z,6.50
2023-04-26T20:41:14.494Z,6.90
2023-04-26T20:45:13.601Z,7.20
2023-04-26T20:49:09.370Z,6.20
2023-04-26T20:53:08.807Z,6.00
2023-04-26T20:57:13.025Z,5.00
2023-04-26T21:01:14.595Z,5.00
2023-04-26T21:05:13.218Z,5.50
2023-04-26T21:09:12.899Z,6.50
2023-04-26T21:13:11.205Z,5.90
2023-04-26T21:17:10.229Z,5.00
2023-04-26T21:21:06.969Z,5.60
2023-04-26T21:25:05.857Z,5.90
2023-04-26T21:29:04.276Z,5.10
2023-04-26T21:33:05.776Z,6.70
2023-04-26T21:37:01.072Z,5.90
2023-04-26T21:41:02.746Z,7.50
2023-04-26T21:44:58.424Z,7.00
2023-04-26T21:49:00.207Z,7.40
2023-04-26T21:52:55.240Z,8.10
2023-04-26T21:56:56.785Z,6.80
2023-04-26T22:00:55.129Z,6.70
2023-04-26T22:04:54.229Z,7.10
2023-04-26T22:08:52.206Z,6.50
2023-04-26T22:12:51.334Z,7.10
2023-04-26T22:16:48.183Z,7.20
2023-04-26T22:20:46.974Z,6.70
2023-04-26T22:24:46.429Z,7.30
2023-04-26T22:28:47.271Z,6.80
2023-04-26T22:32:42.279Z,6.40
2023-04-26T22:36:43.810Z,7.20
2023-04-26T22:40:57.664Z,7.30
2023-04-26T22:44:58.732Z,7.30
2023-04-26T22:48:57.378Z,7.30
2023-04-26T22:52:57.347Z,7.00
2023-04-26T22:56:54.422Z,7.00
2023-04-26T23:00:53.388Z,7.00
2023-04-26T23:04:51.407Z,7.80
2023-04-26T23:08:50.862Z,7.20
2023-04-26T23:12:48.435Z,8.00
2023-04-26T23:16:48.619Z,7.80
2023-04-26T23:20:47.384Z,7.20
2023-04-26T23:24:48.738Z,7.20
2023-04-26T23:28:44.308Z,6.90
2023-04-26T23:32:45.572Z,6.90
2023-04-26T23:36:41.675Z,6.70
2023-04-26T23:40:43.286Z,6.80
2023-04-26T23:44:38.683Z,6.90
2023-04-26T23:48:40.377Z,7.10
2023-04-26T23:52:38.525Z,7.10
2023-04-26T23:56:37.381Z,6.80
